sensor_id;sensor_type;location;lat;lon;timestamp;P1;durP1;ratioP1;P2;durP2;ratioP2
19231;SDS011;9750;48.730;10.294;2023-07-31T00:00:19;2.87;;;2.27;;
19231;SDS011;9750;48.730;10.294;2023-07-31T00:02:48;3.00;;;2.00;;
19231;SDS011;9750;48.730;10.294;2023-07-31T00:05:15;5.70;;;2.23;;
19231;SDS011;9750;48.730;10.294;2023-07-31T00:07:42;3.70;;;2.50;;
19231;SDS011;9750;48.730;10.294;2023-07-31T00:10:10;4.87;;;2.40;;
19231;SDS011;9750;48.730;10.294;2023-07-31T00:12:37;4.07;;;2.20;;
19231;SDS011;9750;48.730;10.294;2023-07-31T00:15:06;4.67;;;2.20;;
19231;SDS011;9750;48.730;10.294;2023-07-31T00:17:33;3.07;;;2.10;;
19231;SDS011;9750;48.730;10.294;2023-07-31T00:20:02;4.77;;;2.20;;
19231;SDS011;9750;48.730;10.294;2023-07-31T00:22:30;3.43;;;2.27;;
19231;SDS011;9750;48.730;10.294;2023-07-31T00:24:57;5.70;;;2.43;;
19231;SDS011;9750;48.730;10.294;2023-07-31T00:27:25;5.37;;;2.27;;
19231;SDS011;9750;48.730;10.294;2023-07-31T00:29:52;3.53;;;2.20;;
19231;SDS011;9750;48.730;10.294;2023-07-31T00:32:19;4.03;;;2.10;;
19231;SDS011;9750;48.730;10.294;2023-07-31T00:34:46;5.67;;;2.30;;
19231;SDS011;9750;48.730;10.294;2023-07-31T00:37:15;4.33;;;2.27;;
19231;SDS011;9750;48.730;10.294;2023-07-31T00:39:42;3.17;;;2.10;;
19231;SDS011;9750;48.730;10.294;2023-07-31T00:42:10;6.07;;;2.67;;
19231;SDS011;9750;48.730;10.294;2023-07-31T00:44:37;4.27;;;2.23;;
19231;SDS011;9750;48.730;10.294;2023-07-31T00:47:04;4.10;;;2.40;;
19231;SDS011;9750;48.730;10.294;2023-07-31T00:49:32;4.63;;;2.37;;
19231;SDS011;9750;48.730;10.294;2023-07-31T00:51:59;4.67;;;2.30;;
19231;SDS011;9750;48.730;10.294;2023-07-31T00:54:29;4.60;;;2.50;;
19231;SDS011;9750;48.730;10.294;2023-07-31T00:56:56;3.70;;;1.90;;
19231;SDS011;9750;48.730;10.294;2023-07-31T00:59:24;4.13;;;2.20;;
19231;SDS011;9750;48.730;10.294;2023-07-31T01:01:51;4.33;;;2.37;;
19231;SDS011;9750;48.730;10.294;2023-07-31T01:04:18;3.03;;;2.20;;
19231;SDS011;9750;48.730;10.294;2023-07-31T01:06:47;3.77;;;2.17;;
19231;SDS011;9750;48.730;10.294;2023-07-31T01:09:22;3.53;;;2.13;;
19231;SDS011;9750;48.730;10.294;2023-07-31T01:12:01;4.23;;;2.30;;
19231;SDS011;9750;48.730;10.294;2023-07-31T01:14:29;3.37;;;2.20;;
19231;SDS011;9750;48.730;10.294;2023-07-31T01:16:56;4.67;;;2.20;;
19231;SDS011;9750;48.730;10.294;2023-07-31T01:19:24;3.37;;;2.30;;
19231;SDS011;9750;48.730;10.294;2023-07-31T01:22:16;4.03;;;2.20;;
19231;SDS011;9750;48.730;10.294;2023-07-31T01:25:03;3.97;;;2.40;;
19231;SDS011;9750;48.730;10.294;2023-07-31T01:27:46;4.40;;;2.40;;
19231;SDS011;9750;48.730;10.294;2023-07-31T01:30:21;4.07;;;2.33;;
19231;SDS011;9750;48.730;10.294;2023-07-31T01:32:51;4.73;;;2.27;;
19231;SDS011;9750;48.730;10.294;2023-07-31T01:35:21;3.97;;;2.50;;
19231;SDS011;9750;48.730;10.294;2023-07-31T01:37:48;3.93;;;2.30;;
19231;SDS011;9750;48.730;10.294;2023-07-31T01:40:15;4.40;;;2.53;;
19231;SDS011;9750;48.730;10.294;2023-07-31T01:42:42;2.53;;;1.80;;
19231;SDS011;9750;48.730;10.294;2023-07-31T01:45:11;3.80;;;2.20;;
19231;SDS011;9750;48.730;10.294;2023-07-31T01:47:39;3.40;;;2.30;;
19231;SDS011;9750;48.730;10.294;2023-07-31T01:50:06;4.70;;;2.87;;
19231;SDS011;9750;48.730;10.294;2023-07-31T01:52:33;4.67;;;2.53;;
19231;SDS011;9750;48.730;10.294;2023-07-31T01:55:01;3.77;;;2.27;;
19231;SDS011;9750;48.730;10.294;2023-07-31T01:57:28;3.73;;;2.00;;
19231;SDS011;9750;48.730;10.294;2023-07-31T01:59:57;4.00;;;2.30;;
19231;SDS011;9750;48.730;10.294;2023-07-31T02:02:24;4.60;;;2.30;;
19231;SDS011;9750;48.730;10.294;2023-07-31T02:04:51;3.67;;;2.10;;
19231;SDS011;9750;48.730;10.294;2023-07-31T02:07:18;2.40;;;1.93;;
19231;SDS011;9750;48.730;10.294;2023-07-31T02:09:46;4.00;;;2.50;;
19231;SDS011;9750;48.730;10.294;2023-07-31T02:12:13;3.60;;;2.20;;
19231;SDS011;9750;48.730;10.294;2023-07-31T02:14:40;6.07;;;2.20;;
19231;SDS011;9750;48.730;10.294;2023-07-31T02:17:09;3.63;;;2.07;;
19231;SDS011;9750;48.730;10.294;2023-07-31T02:19:36;3.97;;;2.10;;
19231;SDS011;9750;48.730;10.294;2023-07-31T02:22:04;5.30;;;2.43;;
19231;SDS011;9750;48.730;10.294;2023-07-31T02:24:31;4.80;;;2.60;;
19231;SDS011;9750;48.730;10.294;2023-07-31T02:26:58;4.13;;;2.30;;
19231;SDS011;9750;48.730;10.294;2023-07-31T02:29:26;3.47;;;2.23;;
19231;SDS011;9750;48.730;10.294;2023-07-31T02:31:53;4.50;;;2.47;;
19231;SDS011;9750;48.730;10.294;2023-07-31T02:34:21;3.90;;;2.27;;
19231;SDS011;9750;48.730;10.294;2023-07-31T02:36:49;4.40;;;2.13;;
19231;SDS011;9750;48.730;10.294;2023-07-31T02:39:16;4.83;;;2.60;;
19231;SDS011;9750;48.730;10.294;2023-07-31T02:41:43;3.10;;;2.20;;
19231;SDS011;9750;48.730;10.294;2023-07-31T02:44:10;5.67;;;2.60;;
19231;SDS011;9750;48.730;10.294;2023-07-31T02:46:39;4.97;;;2.40;;
19231;SDS011;9750;48.730;10.294;2023-07-31T02:49:06;3.73;;;2.47;;
19231;SDS011;9750;48.730;10.294;2023-07-31T02:51:35;4.87;;;2.57;;
19231;SDS011;9750;48.730;10.294;2023-07-31T02:54:02;3.80;;;2.27;;
19231;SDS011;9750;48.730;10.294;2023-07-31T02:56:30;3.10;;;2.17;;
19231;SDS011;9750;48.730;10.294;2023-07-31T02:58:57;4.10;;;2.40;;
19231;SDS011;9750;48.730;10.294;2023-07-31T03:01:24;5.07;;;2.30;;
19231;SDS011;9750;48.730;10.294;2023-07-31T03:03:51;4.50;;;2.43;;
19231;SDS011;9750;48.730;10.294;2023-07-31T03:06:19;3.97;;;2.33;;
19231;SDS011;9750;48.730;10.294;2023-07-31T03:08:47;3.83;;;2.13;;
19231;SDS011;9750;48.730;10.294;2023-07-31T03:11:15;4.83;;;2.43;;
19231;SDS011;9750;48.730;10.294;2023-07-31T03:13:42;4.43;;;2.37;;
19231;SDS011;9750;48.730;10.294;2023-07-31T03:16:09;4.67;;;2.63;;
19231;SDS011;9750;48.730;10.294;2023-07-31T03:18:36;3.30;;;2.47;;
19231;SDS011;9750;48.730;10.294;2023-07-31T03:21:03;4.47;;;2.40;;
19231;SDS011;9750;48.730;10.294;2023-07-31T03:23:31;3.67;;;2.53;;
19231;SDS011;9750;48.730;10.294;2023-07-31T03:26:00;5.13;;;2.20;;
19231;SDS011;9750;48.730;10.294;2023-07-31T03:28:28;3.13;;;2.20;;
19231;SDS011;9750;48.730;10.294;2023-07-31T03:30:56;3.50;;;2.20;;
19231;SDS011;9750;48.730;10.294;2023-07-31T03:33:23;3.00;;;2.40;;
19231;SDS011;9750;48.730;10.294;2023-07-31T03:35:50;4.20;;;2.40;;
19231;SDS011;9750;48.730;10.294;2023-07-31T03:38:18;4.33;;;2.47;;
19231;SDS011;9750;48.730;10.294;2023-07-31T03:40:46;4.20;;;2.87;;
19231;SDS011;9750;48.730;10.294;2023-07-31T03:43:14;4.40;;;2.37;;
19231;SDS011;9750;48.730;10.294;2023-07-31T03:45:42;4.13;;;2.70;;
19231;SDS011;9750;48.730;10.294;2023-07-31T03:48:09;4.73;;;2.70;;
19231;SDS011;9750;48.730;10.294;2023-07-31T03:50:36;4.47;;;2.50;;
19231;SDS011;9750;48.730;10.294;2023-07-31T03:53:04;4.67;;;2.30;;
19231;SDS011;9750;48.730;10.294;2023-07-31T03:55:31;4.37;;;2.60;;
19231;SDS011;9750;48.730;10.294;2023-07-31T03:57:58;4.37;;;2.43;;
19231;SDS011;9750;48.730;10.294;2023-07-31T04:00:27;2.83;;;2.20;;
19231;SDS011;9750;48.730;10.294;2023-07-31T04:02:55;4.10;;;2.40;;
19231;SDS011;9750;48.730;10.294;2023-07-31T04:05:22;3.47;;;2.47;;
19231;SDS011;9750;48.730;10.294;2023-07-31T04:07:49;4.47;;;2.70;;
19231;SDS011;9750;48.730;10.294;2023-07-31T04:10:16;3.60;;;2.60;;
19231;SDS011;9750;48.730;10.294;2023-07-31T04:12:43;3.40;;;2.30;;
19231;SDS011;9750;48.730;10.294;2023-07-31T04:15:11;4.50;;;2.43;;
19231;SDS011;9750;48.730;10.294;2023-07-31T04:17:39;3.07;;;2.10;;
19231;SDS011;9750;48.730;10.294;2023-07-31T04:20:07;4.27;;;2.57;;
19231;SDS011;9750;48.730;10.294;2023-07-31T04:22:35;4.73;;;2.20;;
19231;SDS011;9750;48.730;10.294;2023-07-31T04:25:02;3.43;;;2.43;;
19231;SDS011;9750;48.730;10.294;2023-07-31T04:27:29;6.47;;;2.60;;
19231;SDS011;9750;48.730;10.294;2023-07-31T04:29:57;3.40;;;2.10;;
19231;SDS011;9750;48.730;10.294;2023-07-31T04:32:24;2.50;;;2.30;;
19231;SDS011;9750;48.730;10.294;2023-07-31T04:34:53;4.03;;;2.30;;
19231;SDS011;9750;48.730;10.294;2023-07-31T04:37:20;3.23;;;2.63;;
19231;SDS011;9750;48.730;10.294;2023-07-31T04:39:47;4.23;;;2.47;;
19231;SDS011;9750;48.730;10.294;2023-07-31T04:42:14;4.13;;;1.90;;
19231;SDS011;9750;48.730;10.294;2023-07-31T04:44:42;3.20;;;2.50;;
19231;SDS011;9750;48.730;10.294;2023-07-31T04:47:09;5.50;;;2.10;;
19231;SDS011;9750;48.730;10.294;2023-07-31T04:49:36;3.87;;;2.67;;
19231;SDS011;9750;48.730;10.294;2023-07-31T04:52:05;4.40;;;2.50;;
19231;SDS011;9750;48.730;10.294;2023-07-31T04:54:33;4.77;;;2.20;;
19231;SDS011;9750;48.730;10.294;2023-07-31T04:57:00;4.90;;;2.47;;
19231;SDS011;9750;48.730;10.294;2023-07-31T04:59:27;4.33;;;2.47;;
19231;SDS011;9750;48.730;10.294;2023-07-31T05:01:54;2.87;;;2.20;;
19231;SDS011;9750;48.730;10.294;2023-07-31T05:04:22;2.97;;;2.47;;
19231;SDS011;9750;48.730;10.294;2023-07-31T05:06:49;3.77;;;2.20;;
19231;SDS011;9750;48.730;10.294;2023-07-31T05:09:18;4.27;;;2.53;;
19231;SDS011;9750;48.730;10.294;2023-07-31T05:11:45;4.40;;;2.37;;
19231;SDS011;9750;48.730;10.294;2023-07-31T05:14:12;4.70;;;2.40;;
19231;SDS011;9750;48.730;10.294;2023-07-31T05:16:40;4.03;;;2.37;;
19231;SDS011;9750;48.730;10.294;2023-07-31T05:19:08;3.77;;;2.23;;
19231;SDS011;9750;48.730;10.294;2023-07-31T05:21:35;5.40;;;2.40;;
19231;SDS011;9750;48.730;10.294;2023-07-31T05:24:02;4.93;;;2.70;;
19231;SDS011;9750;48.730;10.294;2023-07-31T05:26:31;4.53;;;4.00;;
19231;SDS011;9750;48.730;10.294;2023-07-31T05:28:58;3.43;;;2.57;;
19231;SDS011;9750;48.730;10.294;2023-07-31T05:31:26;5.07;;;2.67;;
19231;SDS011;9750;48.730;10.294;2023-07-31T05:33:53;4.90;;;2.80;;
19231;SDS011;9750;48.730;10.294;2023-07-31T05:36:20;5.27;;;2.27;;
19231;SDS011;9750;48.730;10.294;2023-07-31T05:38:47;3.43;;;2.10;;
19231;SDS011;9750;48.730;10.294;2023-07-31T05:41:15;4.73;;;2.40;;
19231;SDS011;9750;48.730;10.294;2023-07-31T05:43:45;2.80;;;2.33;;
19231;SDS011;9750;48.730;10.294;2023-07-31T05:46:12;4.03;;;2.53;;
19231;SDS011;9750;48.730;10.294;2023-07-31T05:48:39;3.80;;;2.30;;
19231;SDS011;9750;48.730;10.294;2023-07-31T05:51:06;6.60;;;2.60;;
19231;SDS011;9750;48.730;10.294;2023-07-31T05:53:33;3.87;;;2.40;;
19231;SDS011;9750;48.730;10.294;2023-07-31T05:56:04;3.10;;;2.33;;
19231;SDS011;9750;48.730;10.294;2023-07-31T05:58:31;2.87;;;2.10;;
19231;SDS011;9750;48.730;10.294;2023-07-31T06:01:00;4.63;;;2.63;;
19231;SDS011;9750;48.730;10.294;2023-07-31T06:03:27;6.07;;;2.80;;
19231;SDS011;9750;48.730;10.294;2023-07-31T06:05:55;3.87;;;2.20;;
19231;SDS011;9750;48.730;10.294;2023-07-31T06:08:22;3.93;;;2.40;;
19231;SDS011;9750;48.730;10.294;2023-07-31T06:10:50;3.53;;;2.60;;
19231;SDS011;9750;48.730;10.294;2023-07-31T06:13:17;3.10;;;2.00;;
19231;SDS011;9750;48.730;10.294;2023-07-31T06:15:44;4.47;;;2.30;;
19231;SDS011;9750;48.730;10.294;2023-07-31T06:18:13;7.07;;;2.70;;
19231;SDS011;9750;48.730;10.294;2023-07-31T06:20:40;3.77;;;2.37;;
19231;SDS011;9750;48.730;10.294;2023-07-31T06:23:07;3.90;;;2.43;;
19231;SDS011;9750;48.730;10.294;2023-07-31T06:25:35;2.83;;;2.37;;
19231;SDS011;9750;48.730;10.294;2023-07-31T06:28:02;3.07;;;1.80;;
19231;SDS011;9750;48.730;10.294;2023-07-31T06:30:29;4.47;;;2.87;;
19231;SDS011;9750;48.730;10.294;2023-07-31T06:32:57;4.10;;;2.47;;
19231;SDS011;9750;48.730;10.294;2023-07-31T06:35:25;4.63;;;2.50;;
19231;SDS011;9750;48.730;10.294;2023-07-31T06:37:52;5.03;;;2.50;;
19231;SDS011;9750;48.730;10.294;2023-07-31T06:40:20;3.30;;;2.60;;
19231;SDS011;9750;48.730;10.294;2023-07-31T06:42:48;4.00;;;2.67;;
19231;SDS011;9750;48.730;10.294;2023-07-31T06:45:15;5.43;;;2.43;;
19231;SDS011;9750;48.730;10.294;2023-07-31T06:47:42;2.43;;;2.20;;
19231;SDS011;9750;48.730;10.294;2023-07-31T06:50:12;2.80;;;2.50;;
19231;SDS011;9750;48.730;10.294;2023-07-31T06:52:40;4.87;;;2.40;;
19231;SDS011;9750;48.730;10.294;2023-07-31T06:55:16;3.37;;;2.23;;
19231;SDS011;9750;48.730;10.294;2023-07-31T06:57:45;4.00;;;2.50;;
19231;SDS011;9750;48.730;10.294;2023-07-31T07:00:12;7.17;;;2.60;;
19231;SDS011;9750;48.730;10.294;2023-07-31T07:02:40;3.40;;;2.20;;
19231;SDS011;9750;48.730;10.294;2023-07-31T07:05:08;4.23;;;2.60;;
19231;SDS011;9750;48.730;10.294;2023-07-31T07:10:43;3.97;;;2.50;;
19231;SDS011;9750;48.730;10.294;2023-07-31T07:13:11;4.97;;;2.27;;
19231;SDS011;9750;48.730;10.294;2023-07-31T07:15:39;3.77;;;2.50;;
19231;SDS011;9750;48.730;10.294;2023-07-31T07:18:06;3.37;;;2.37;;
19231;SDS011;9750;48.730;10.294;2023-07-31T07:20:35;3.17;;;2.43;;
19231;SDS011;9750;48.730;10.294;2023-07-31T07:23:02;4.83;;;2.50;;
19231;SDS011;9750;48.730;10.294;2023-07-31T07:25:30;5.43;;;2.63;;
19231;SDS011;9750;48.730;10.294;2023-07-31T07:27:59;4.40;;;2.40;;
19231;SDS011;9750;48.730;10.294;2023-07-31T07:30:26;4.23;;;2.40;;
19231;SDS011;9750;48.730;10.294;2023-07-31T07:32:53;4.87;;;2.20;;
19231;SDS011;9750;48.730;10.294;2023-07-31T07:35:21;3.53;;;2.13;;
19231;SDS011;9750;48.730;10.294;2023-07-31T07:37:48;3.63;;;2.20;;
19231;SDS011;9750;48.730;10.294;2023-07-31T07:40:16;4.03;;;2.30;;
19231;SDS011;9750;48.730;10.294;2023-07-31T07:42:43;4.23;;;2.53;;
19231;SDS011;9750;48.730;10.294;2023-07-31T07:45:12;3.07;;;2.03;;
19231;SDS011;9750;48.730;10.294;2023-07-31T07:47:40;4.27;;;2.50;;
19231;SDS011;9750;48.730;10.294;2023-07-31T07:50:08;4.37;;;2.47;;
19231;SDS011;9750;48.730;10.294;2023-07-31T07:52:36;5.73;;;2.53;;
19231;SDS011;9750;48.730;10.294;2023-07-31T07:55:04;4.43;;;2.33;;
19231;SDS011;9750;48.730;10.294;2023-07-31T07:57:32;4.77;;;2.63;;
19231;SDS011;9750;48.730;10.294;2023-07-31T07:59:59;5.20;;;2.60;;
19231;SDS011;9750;48.730;10.294;2023-07-31T08:02:28;3.60;;;2.47;;
19231;SDS011;9750;48.730;10.294;2023-07-31T08:04:55;3.57;;;2.60;;
19231;SDS011;9750;48.730;10.294;2023-07-31T08:07:22;5.17;;;2.60;;
19231;SDS011;9750;48.730;10.294;2023-07-31T08:09:50;4.83;;;2.37;;
19231;SDS011;9750;48.730;10.294;2023-07-31T08:12:19;4.93;;;2.27;;
19231;SDS011;9750;48.730;10.294;2023-07-31T08:14:46;7.03;;;2.83;;
19231;SDS011;9750;48.730;10.294;2023-07-31T08:17:13;3.67;;;2.70;;
19231;SDS011;9750;48.730;10.294;2023-07-31T08:19:42;4.37;;;2.77;;
19231;SDS011;9750;48.730;10.294;2023-07-31T08:22:10;4.07;;;2.50;;
19231;SDS011;9750;48.730;10.294;2023-07-31T08:24:37;3.33;;;2.40;;
19231;SDS011;9750;48.730;10.294;2023-07-31T08:27:05;5.70;;;3.00;;
19231;SDS011;9750;48.730;10.294;2023-07-31T08:29:33;4.20;;;2.63;;
19231;SDS011;9750;48.730;10.294;2023-07-31T08:32:00;4.10;;;2.27;;
19231;SDS011;9750;48.730;10.294;2023-07-31T08:34:27;5.77;;;3.13;;
19231;SDS011;9750;48.730;10.294;2023-07-31T08:36:56;5.90;;;3.10;;
19231;SDS011;9750;48.730;10.294;2023-07-31T08:39:23;5.03;;;2.70;;
19231;SDS011;9750;48.730;10.294;2023-07-31T08:41:50;5.30;;;2.90;;
19231;SDS011;9750;48.730;10.294;2023-07-31T08:44:18;4.90;;;3.30;;
19231;SDS011;9750;48.730;10.294;2023-07-31T08:46:45;4.60;;;2.70;;
19231;SDS011;9750;48.730;10.294;2023-07-31T08:49:14;5.20;;;3.03;;
19231;SDS011;9750;48.730;10.294;2023-07-31T08:51:43;5.03;;;2.87;;
19231;SDS011;9750;48.730;10.294;2023-07-31T08:54:15;6.83;;;3.00;;
19231;SDS011;9750;48.730;10.294;2023-07-31T08:56:42;7.10;;;3.13;;
19231;SDS011;9750;48.730;10.294;2023-07-31T08:59:10;4.37;;;2.80;;
19231;SDS011;9750;48.730;10.294;2023-07-31T09:01:41;5.60;;;3.03;;
19231;SDS011;9750;48.730;10.294;2023-07-31T09:04:13;6.07;;;2.90;;
19231;SDS011;9750;48.730;10.294;2023-07-31T09:06:41;5.00;;;3.17;;
19231;SDS011;9750;48.730;10.294;2023-07-31T09:09:10;6.38;;;3.10;;
19231;SDS011;9750;48.730;10.294;2023-07-31T09:11:40;5.63;;;2.90;;
19231;SDS011;9750;48.730;10.294;2023-07-31T09:14:08;5.28;;;3.08;;
19231;SDS011;9750;48.730;10.294;2023-07-31T09:16:35;4.55;;;3.08;;
19231;SDS011;9750;48.730;10.294;2023-07-31T09:19:02;5.90;;;3.15;;
19231;SDS011;9750;48.730;10.294;2023-07-31T09:21:30;4.88;;;3.35;;
19231;SDS011;9750;48.730;10.294;2023-07-31T09:23:57;8.55;;;3.40;;
19231;SDS011;9750;48.730;10.294;2023-07-31T09:26:31;4.80;;;2.83;;
19231;SDS011;9750;48.730;10.294;2023-07-31T09:29:01;5.60;;;3.67;;
19231;SDS011;9750;48.730;10.294;2023-07-31T09:31:38;4.97;;;3.08;;
19231;SDS011;9750;48.730;10.294;2023-07-31T09:34:07;4.57;;;3.00;;
19231;SDS011;9750;48.730;10.294;2023-07-31T09:36:39;4.80;;;2.72;;
19231;SDS011;9750;48.730;10.294;2023-07-31T09:39:08;6.85;;;3.10;;
19231;SDS011;9750;48.730;10.294;2023-07-31T09:41:36;4.93;;;3.13;;
19231;SDS011;9750;48.730;10.294;2023-07-31T09:44:06;3.78;;;2.83;;
19231;SDS011;9750;48.730;10.294;2023-07-31T09:46:34;5.20;;;2.75;;
19231;SDS011;9750;48.730;10.294;2023-07-31T09:49:08;6.60;;;3.08;;
19231;SDS011;9750;48.730;10.294;2023-07-31T09:51:36;3.95;;;2.70;;
19231;SDS011;9750;48.730;10.294;2023-07-31T09:54:09;4.05;;;2.80;;
19231;SDS011;9750;48.730;10.294;2023-07-31T09:56:38;5.47;;;3.15;;
19231;SDS011;9750;48.730;10.294;2023-07-31T09:59:12;5.45;;;2.95;;
19231;SDS011;9750;48.730;10.294;2023-07-31T10:01:41;3.92;;;2.60;;
19231;SDS011;9750;48.730;10.294;2023-07-31T10:04:09;4.47;;;2.92;;
19231;SDS011;9750;48.730;10.294;2023-07-31T10:06:38;4.95;;;2.97;;
19231;SDS011;9750;48.730;10.294;2023-07-31T10:09:08;4.82;;;2.90;;
19231;SDS011;9750;48.730;10.294;2023-07-31T10:11:38;6.90;;;3.30;;
19231;SDS011;9750;48.730;10.294;2023-07-31T10:14:11;3.97;;;3.00;;
19231;SDS011;9750;48.730;10.294;2023-07-31T10:16:39;4.50;;;2.90;;
19231;SDS011;9750;48.730;10.294;2023-07-31T10:19:08;5.65;;;2.92;;
19231;SDS011;9750;48.730;10.294;2023-07-31T10:21:36;5.22;;;3.10;;
19231;SDS011;9750;48.730;10.294;2023-07-31T10:24:05;4.85;;;3.58;;
19231;SDS011;9750;48.730;10.294;2023-07-31T10:26:32;3.85;;;2.90;;
19231;SDS011;9750;48.730;10.294;2023-07-31T10:29:00;4.22;;;2.80;;
19231;SDS011;9750;48.730;10.294;2023-07-31T10:31:29;3.80;;;2.83;;
19231;SDS011;9750;48.730;10.294;2023-07-31T10:33:57;6.13;;;2.72;;
19231;SDS011;9750;48.730;10.294;2023-07-31T10:36:26;4.47;;;2.80;;
19231;SDS011;9750;48.730;10.294;2023-07-31T10:38:54;4.10;;;3.35;;
19231;SDS011;9750;48.730;10.294;2023-07-31T10:41:27;5.22;;;2.88;;
19231;SDS011;9750;48.730;10.294;2023-07-31T10:43:57;6.82;;;3.08;;
19231;SDS011;9750;48.730;10.294;2023-07-31T10:46:24;4.55;;;3.10;;
19231;SDS011;9750;48.730;10.294;2023-07-31T10:48:58;6.60;;;3.25;;
19231;SDS011;9750;48.730;10.294;2023-07-31T10:51:32;3.95;;;2.90;;
19231;SDS011;9750;48.730;10.294;2023-07-31T10:54:12;6.25;;;3.20;;
19231;SDS011;9750;48.730;10.294;2023-07-31T10:56:44;4.60;;;2.65;;
19231;SDS011;9750;48.730;10.294;2023-07-31T10:59:12;6.10;;;2.97;;
19231;SDS011;9750;48.730;10.294;2023-07-31T11:01:51;3.72;;;2.50;;
19231;SDS011;9750;48.730;10.294;2023-07-31T11:04:24;5.20;;;2.70;;
19231;SDS011;9750;48.730;10.294;2023-07-31T11:06:55;3.95;;;2.58;;
19231;SDS011;9750;48.730;10.294;2023-07-31T11:09:24;4.30;;;2.90;;
19231;SDS011;9750;48.730;10.294;2023-07-31T11:11:56;3.10;;;2.40;;
19231;SDS011;9750;48.730;10.294;2023-07-31T11:14:23;4.82;;;2.88;;
19231;SDS011;9750;48.730;10.294;2023-07-31T11:16:50;4.30;;;2.70;;
19231;SDS011;9750;48.730;10.294;2023-07-31T11:19:21;6.88;;;3.42;;
19231;SDS011;9750;48.730;10.294;2023-07-31T11:21:50;6.43;;;2.90;;
19231;SDS011;9750;48.730;10.294;2023-07-31T11:24:19;4.55;;;2.78;;
19231;SDS011;9750;48.730;10.294;2023-07-31T11:26:50;4.45;;;3.10;;
19231;SDS011;9750;48.730;10.294;2023-07-31T11:29:17;4.82;;;2.85;;
19231;SDS011;9750;48.730;10.294;2023-07-31T11:31:46;5.53;;;2.97;;
19231;SDS011;9750;48.730;10.294;2023-07-31T11:34:14;5.20;;;2.97;;
19231;SDS011;9750;48.730;10.294;2023-07-31T11:36:53;4.13;;;2.58;;
19231;SDS011;9750;48.730;10.294;2023-07-31T11:39:21;3.80;;;2.78;;
19231;SDS011;9750;48.730;10.294;2023-07-31T11:41:48;5.13;;;3.00;;
19231;SDS011;9750;48.730;10.294;2023-07-31T11:44:15;5.20;;;3.10;;
19231;SDS011;9750;48.730;10.294;2023-07-31T11:46:42;6.15;;;3.25;;
19231;SDS011;9750;48.730;10.294;2023-07-31T11:49:10;4.47;;;2.83;;
19231;SDS011;9750;48.730;10.294;2023-07-31T11:51:37;6.70;;;3.28;;
19231;SDS011;9750;48.730;10.294;2023-07-31T11:54:06;3.85;;;3.20;;
19231;SDS011;9750;48.730;10.294;2023-07-31T11:56:34;5.68;;;2.75;;
19231;SDS011;9750;48.730;10.294;2023-07-31T11:59:01;5.00;;;2.65;;
19231;SDS011;9750;48.730;10.294;2023-07-31T12:01:30;3.85;;;2.67;;
19231;SDS011;9750;48.730;10.294;2023-07-31T12:03:58;4.68;;;2.65;;
19231;SDS011;9750;48.730;10.294;2023-07-31T12:06:32;2.97;;;2.67;;
19231;SDS011;9750;48.730;10.294;2023-07-31T12:09:00;5.28;;;2.78;;
19231;SDS011;9750;48.730;10.294;2023-07-31T12:11:30;7.15;;;2.83;;
19231;SDS011;9750;48.730;10.294;2023-07-31T12:13:58;4.75;;;2.72;;
19231;SDS011;9750;48.730;10.294;2023-07-31T12:16:26;4.22;;;2.97;;
19231;SDS011;9750;48.730;10.294;2023-07-31T12:18:54;4.80;;;2.78;;
19231;SDS011;9750;48.730;10.294;2023-07-31T12:21:21;4.82;;;2.95;;
19231;SDS011;9750;48.730;10.294;2023-07-31T12:23:48;4.57;;;2.80;;
19231;SDS011;9750;48.730;10.294;2023-07-31T12:26:19;4.05;;;3.30;;
19231;SDS011;9750;48.730;10.294;2023-07-31T12:28:50;4.60;;;3.00;;
19231;SDS011;9750;48.730;10.294;2023-07-31T12:31:21;5.35;;;3.10;;
19231;SDS011;9750;48.730;10.294;2023-07-31T12:33:49;4.53;;;3.33;;
19231;SDS011;9750;48.730;10.294;2023-07-31T12:36:17;4.13;;;2.83;;
19231;SDS011;9750;48.730;10.294;2023-07-31T12:38:46;4.95;;;2.95;;
19231;SDS011;9750;48.730;10.294;2023-07-31T12:41:14;7.85;;;3.45;;
19231;SDS011;9750;48.730;10.294;2023-07-31T12:43:42;4.85;;;2.90;;
19231;SDS011;9750;48.730;10.294;2023-07-31T12:46:11;4.78;;;3.83;;
19231;SDS011;9750;48.730;10.294;2023-07-31T12:48:40;8.25;;;3.80;;
19231;SDS011;9750;48.730;10.294;2023-07-31T12:51:07;5.30;;;3.13;;
19231;SDS011;9750;48.730;10.294;2023-07-31T12:53:34;4.32;;;3.13;;
19231;SDS011;9750;48.730;10.294;2023-07-31T12:56:01;5.60;;;3.22;;
19231;SDS011;9750;48.730;10.294;2023-07-31T12:58:29;5.45;;;3.50;;
19231;SDS011;9750;48.730;10.294;2023-07-31T13:00:56;4.63;;;2.90;;
19231;SDS011;9750;48.730;10.294;2023-07-31T13:03:25;5.03;;;3.20;;
19231;SDS011;9750;48.730;10.294;2023-07-31T13:05:52;4.60;;;3.10;;
19231;SDS011;9750;48.730;10.294;2023-07-31T13:08:19;4.20;;;3.15;;
19231;SDS011;9750;48.730;10.294;2023-07-31T13:10:47;4.72;;;3.28;;
19231;SDS011;9750;48.730;10.294;2023-07-31T13:13:14;3.90;;;3.10;;
19231;SDS011;9750;48.730;10.294;2023-07-31T13:15:41;4.47;;;3.10;;
19231;SDS011;9750;48.730;10.294;2023-07-31T13:18:10;6.88;;;3.25;;
19231;SDS011;9750;48.730;10.294;2023-07-31T13:20:38;6.10;;;3.60;;
19231;SDS011;9750;48.730;10.294;2023-07-31T13:23:06;3.50;;;2.85;;
19231;SDS011;9750;48.730;10.294;2023-07-31T13:25:33;3.45;;;3.10;;
19231;SDS011;9750;48.730;10.294;2023-07-31T13:31:22;5.32;;;3.25;;
19231;SDS011;9750;48.730;10.294;2023-07-31T13:33:49;3.92;;;2.88;;
19231;SDS011;9750;48.730;10.294;2023-07-31T13:36:18;4.32;;;3.13;;
19231;SDS011;9750;48.730;10.294;2023-07-31T13:38:45;3.92;;;2.90;;
19231;SDS011;9750;48.730;10.294;2023-07-31T13:41:12;3.70;;;3.30;;
19231;SDS011;9750;48.730;10.294;2023-07-31T13:43:40;5.57;;;3.05;;
19231;SDS011;9750;48.730;10.294;2023-07-31T13:46:07;3.42;;;3.10;;
19231;SDS011;9750;48.730;10.294;2023-07-31T13:48:36;5.88;;;3.42;;
19231;SDS011;9750;48.730;10.294;2023-07-31T13:51:03;5.07;;;3.35;;
19231;SDS011;9750;48.730;10.294;2023-07-31T13:53:32;4.38;;;3.28;;
19231;SDS011;9750;48.730;10.294;2023-07-31T13:55:59;5.75;;;3.25;;
19231;SDS011;9750;48.730;10.294;2023-07-31T13:58:26;6.72;;;3.40;;
19231;SDS011;9750;48.730;10.294;2023-07-31T14:00:54;5.30;;;3.60;;
19231;SDS011;9750;48.730;10.294;2023-07-31T14:03:21;5.15;;;3.50;;
19231;SDS011;9750;48.730;10.294;2023-07-31T14:05:48;6.20;;;3.25;;
19231;SDS011;9750;48.730;10.294;2023-07-31T14:08:15;5.80;;;3.28;;
19231;SDS011;9750;48.730;10.294;2023-07-31T14:10:44;6.72;;;3.47;;
19231;SDS011;9750;48.730;10.294;2023-07-31T14:13:11;5.22;;;3.45;;
19231;SDS011;9750;48.730;10.294;2023-07-31T14:15:39;7.97;;;3.80;;
19231;SDS011;9750;48.730;10.294;2023-07-31T14:18:08;5.63;;;3.53;;
19231;SDS011;9750;48.730;10.294;2023-07-31T14:20:35;4.93;;;3.50;;
19231;SDS011;9750;48.730;10.294;2023-07-31T14:23:03;8.43;;;3.90;;
19231;SDS011;9750;48.730;10.294;2023-07-31T14:25:30;3.50;;;3.17;;
19231;SDS011;9750;48.730;10.294;2023-07-31T14:27:59;5.05;;;3.40;;
19231;SDS011;9750;48.730;10.294;2023-07-31T14:30:27;6.15;;;4.00;;
19231;SDS011;9750;48.730;10.294;2023-07-31T14:32:54;5.85;;;4.05;;
19231;SDS011;9750;48.730;10.294;2023-07-31T14:35:21;8.00;;;4.10;;
19231;SDS011;9750;48.730;10.294;2023-07-31T14:37:49;6.53;;;3.40;;
19231;SDS011;9750;48.730;10.294;2023-07-31T14:40:16;4.60;;;3.30;;
19231;SDS011;9750;48.730;10.294;2023-07-31T14:42:43;7.85;;;3.60;;
19231;SDS011;9750;48.730;10.294;2023-07-31T14:45:12;6.32;;;3.83;;
19231;SDS011;9750;48.730;10.294;2023-07-31T14:47:39;6.22;;;3.30;;
19231;SDS011;9750;48.730;10.294;2023-07-31T14:50:06;4.85;;;3.30;;
19231;SDS011;9750;48.730;10.294;2023-07-31T14:52:34;7.18;;;3.88;;
19231;SDS011;9750;48.730;10.294;2023-07-31T14:55:01;5.57;;;3.45;;
19231;SDS011;9750;48.730;10.294;2023-07-31T14:57:29;7.97;;;3.47;;
19231;SDS011;9750;48.730;10.294;2023-07-31T14:59:56;5.97;;;3.22;;